Time;durP1;ratioP1;P1;durP2;ratioP2;P2;SDS_P1;SDS_P2;PMS_P1;PMS_P2;Temp;Humidity;BMP_temperature;BMP_pressure;BME280_temperature;BME280_humidity;BME280_pressure;Samples;Min_cycle;Max_cycle;Signal;HPM_P1;HPM_P2
2022/07/10 00:00:21;;;;;;;4.18;1.30;;;13.90;70.10;;;;;;603784;235;26672;-72
2022/07/10 00:02:45;;;;;;;1.60;1.00;;;14.00;69.80;;;;;;603892;238;26889;-72
2022/07/10 00:05:13;;;;;;;1.92;1.00;;;14.10;69.30;;;;;;604762;235;26619;-72
2022/07/10 00:07:39;;;;;;;2.92;0.98;;;14.10;69.00;;;;;;607435;235;27327;-72
2022/07/10 00:10:07;;;;;;;1.85;1.00;;;14.20;68.90;;;;;;602316;237;26657;-72
2022/07/10 00:12:34;;;;;;;2.03;1.05;;;14.20;68.80;;;;;;601713;238;26929;-72
2022/07/10 00:15:01;;;;;;;1.00;0.90;;;14.20;68.90;;;;;;604587;237;26558;-72
2022/07/10 00:17:29;;;;;;;2.08;1.20;;;14.20;68.40;;;;;;604577;238;26601;-68
2022/07/10 00:19:56;;;;;;;5.40;1.25;;;14.30;69.20;;;;;;604638;234;26568;-71
2022/07/10 00:22:24;;;;;;;3.83;1.20;;;14.30;68.40;;;;;;604674;237;26573;-71
2022/07/10 00:24:53;;;;;;;1.92;1.30;;;14.30;68.40;;;;;;605260;236;26553;-71
2022/07/10 00:27:20;;;;;;;3.08;1.10;;;14.30;68.40;;;;;;609866;230;26563;-71
2022/07/10 00:29:48;;;;;;;1.73;0.85;;;14.40;68.80;;;;;;610960;233;26641;-71
2022/07/10 00:32:16;;;;;;;4.03;1.40;;;14.30;68.90;;;;;;611128;234;26623;-71
2022/07/10 00:34:44;;;;;;;2.55;1.17;;;14.30;69.30;;;;;;610847;235;26657;-71
2022/07/10 00:37:12;;;;;;;1.55;1.00;;;14.40;70.10;;;;;;610701;235;26586;-71
2022/07/10 00:39:39;;;;;;;3.55;1.27;;;14.30;69.30;;;;;;610469;235;26599;-71
2022/07/10 00:42:07;;;;;;;1.98;1.15;;;14.30;69.30;;;;;;610470;236;26583;-71
2022/07/10 00:44:34;;;;;;;1.17;0.90;;;14.30;69.40;;;;;;610493;235;26585;-71
2022/07/10 00:47:02;;;;;;;1.73;1.00;;;14.30;69.10;;;;;;610254;236;26625;-72
2022/07/10 00:49:29;;;;;;;1.87;1.12;;;14.30;69.10;;;;;;610000;231;26656;-72
2022/07/10 00:51:57;;;;;;;1.10;1.00;;;14.30;68.70;;;;;;610106;234;26669;-71
2022/07/10 00:54:25;;;;;;;1.10;1.00;;;14.40;68.90;;;;;;609968;236;26651;-70
2022/07/10 00:56:53;;;;;;;2.72;1.10;;;14.30;68.90;;;;;;609964;236;26631;-68
2022/07/10 00:59:21;;;;;;;6.75;1.55;;;14.30;68.80;;;;;;610489;235;26630;-69
2022/07/10 01:01:48;;;;;;;4.90;1.45;;;14.30;68.80;;;;;;608486;235;26631;-70
2022/07/10 01:04:16;;;;;;;6.20;1.12;;;14.30;69.00;;;;;;604943;237;26806;-69
2022/07/10 01:06:43;;;;;;;2.05;1.12;;;14.30;69.10;;;;;;603951;238;26626;-70
2022/07/10 01:09:10;;;;;;;5.43;0.85;;;14.40;68.90;;;;;;603413;237;26849;-69
2022/07/10 01:11:37;;;;;;;2.90;1.00;;;14.30;68.70;;;;;;604354;236;26578;-70
2022/07/10 01:14:04;;;;;;;1.95;0.88;;;14.30;68.90;;;;;;608975;236;27002;-69
2022/07/10 01:16:32;;;;;;;3.30;1.23;;;14.30;69.00;;;;;;610196;236;26544;-69
2022/07/10 01:18:59;;;;;;;2.70;0.95;;;14.30;69.10;;;;;;605067;235;26827;-70
2022/07/10 01:21:27;;;;;;;2.42;1.20;;;14.30;69.40;;;;;;609242;235;26645;-70
2022/07/10 01:23:55;;;;;;;4.37;1.23;;;14.30;69.60;;;;;;605814;235;26672;-69
2022/07/10 01:26:23;;;;;;;2.72;1.30;;;14.30;69.70;;;;;;604240;237;26598;-70
2022/07/10 01:28:52;;;;;;;2.75;1.17;;;14.30;69.80;;;;;;603708;236;26610;-70
2022/07/10 01:31:20;;;;;;;2.90;1.12;;;14.30;69.80;;;;;;605638;236;26676;-70
2022/07/10 01:33:48;;;;;;;1.60;0.80;;;14.20;69.60;;;;;;608468;236;26556;-69
2022/07/10 01:36:16;;;;;;;3.12;1.10;;;14.30;69.90;;;;;;603767;236;26623;-70
2022/07/10 01:38:43;;;;;;;3.75;1.08;;;14.30;69.90;;;;;;604227;236;26597;-70
2022/07/10 01:41:11;;;;;;;2.92;1.17;;;14.30;70.00;;;;;;606438;231;26871;-69
2022/07/10 01:43:42;;;;;;;2.90;1.20;;;14.20;70.20;;;;;;607055;235;26616;-70
2022/07/10 01:46:05;;;;;;;1.92;0.70;;;14.20;70.20;;;;;;608732;235;26855;-70
2022/07/10 01:48:32;;;;;;;1.33;0.88;;;14.20;70.20;;;;;;603949;236;26589;-70
2022/07/10 01:51:01;;;;;;;2.87;0.95;;;14.30;70.40;;;;;;604722;237;26676;-70
2022/07/10 01:53:29;;;;;;;1.45;0.95;;;14.20;70.30;;;;;;604260;235;26639;-70
2022/07/10 01:55:57;;;;;;;1.23;0.82;;;14.20;70.60;;;;;;602199;238;26584;-70
2022/07/10 01:58:25;;;;;;;2.20;1.00;;;14.20;70.60;;;;;;604263;237;26689;-70
2022/07/10 02:00:53;;;;;;;2.62;1.00;;;14.20;70.80;;;;;;601969;233;26610;-70
2022/07/10 02:05:54;;;;;;;3.47;1.02;;;14.10;70.60;;;;;;608390;235;26915;-69
2022/07/10 02:08:21;;;;;;;1.25;0.80;;;14.20;70.60;;;;;;605064;235;26597;-70
2022/07/10 02:10:49;;;;;;;3.03;1.00;;;14.10;70.60;;;;;;602524;236;26985;-70
2022/07/10 02:13:19;;;;;;;3.58;1.05;;;14.10;71.00;;;;;;601662;236;26589;-70
2022/07/10 02:15:44;;;;;;;2.87;0.85;;;14.00;71.20;;;;;;603924;238;26595;-69
2022/07/10 02:18:11;;;;;;;5.20;1.10;;;14.00;71.20;;;;;;608324;236;26855;-70
2022/07/10 02:20:38;;;;;;;2.35;1.00;;;14.00;71.50;;;;;;602162;236;26646;-69
2022/07/10 02:23:06;;;;;;;1.70;0.80;;;14.00;71.80;;;;;;607187;235;27347;-70
2022/07/10 02:25:34;;;;;;;1.12;0.60;;;14.00;72.10;;;;;;609749;234;27265;-70
2022/07/10 02:28:01;;;;;;;2.10;1.10;;;14.00;72.10;;;;;;610413;235;26880;-70
2022/07/10 02:30:29;;;;;;;1.95;0.80;;;14.00;72.20;;;;;;606434;235;26591;-70
2022/07/10 02:32:56;;;;;;;2.35;0.90;;;14.00;72.70;;;;;;603155;235;27355;-70
2022/07/10 02:35:24;;;;;;;3.28;0.88;;;13.90;73.80;;;;;;601734;236;26629;-70
2022/07/10 02:37:52;;;;;;;1.20;0.98;;;13.80;74.20;;;;;;602347;235;26619;-70
2022/07/10 02:40:20;;;;;;;1.00;0.70;;;13.80;74.40;;;;;;601540;236;26650;-70
2022/07/10 02:42:48;;;;;;;1.30;0.82;;;13.80;74.70;;;;;;608807;235;26588;-70
2022/07/10 02:45:15;;;;;;;0.85;0.65;;;13.80;74.70;;;;;;609393;235;26665;-70
2022/07/10 02:47:43;;;;;;;1.98;0.85;;;13.80;75.20;;;;;;606208;235;26866;-70
2022/07/10 02:50:10;;;;;;;1.58;0.88;;;13.70;75.50;;;;;;607630;235;26636;-70
2022/07/10 02:52:37;;;;;;;1.15;0.65;;;13.80;75.90;;;;;;607555;235;27237;-70
2022/07/10 02:55:05;;;;;;;2.05;0.93;;;13.70;76.20;;;;;;610210;235;26584;-71
2022/07/10 02:57:32;;;;;;;1.95;0.77;;;13.60;76.60;;;;;;604253;235;26599;-70
2022/07/10 02:59:59;;;;;;;1.80;0.70;;;13.60;77.00;;;;;;602579;237;26839;-70
2022/07/10 03:02:26;;;;;;;1.73;0.90;;;13.50;77.20;;;;;;605209;235;26573;-70
2022/07/10 03:04:54;;;;;;;0.80;0.80;;;13.50;77.50;;;;;;606701;236;26614;-70
2022/07/10 03:07:21;;;;;;;2.30;0.80;;;13.50;77.70;;;;;;604891;238;26864;-70
2022/07/10 03:09:48;;;;;;;1.70;0.80;;;13.50;77.90;;;;;;608960;235;26622;-70
2022/07/10 03:12:15;;;;;;;1.75;1.10;;;13.50;78.10;;;;;;604773;237;26844;-70
2022/07/10 03:14:42;;;;;;;1.12;0.57;;;13.50;78.20;;;;;;607189;236;26630;-70
2022/07/10 03:17:10;;;;;;;1.37;0.90;;;13.50;78.50;;;;;;604889;236;26825;-70
2022/07/10 03:19:38;;;;;;;2.03;0.90;;;13.50;78.80;;;;;;606751;235;26582;-70
2022/07/10 03:22:06;;;;;;;2.47;0.77;;;13.50;79.30;;;;;;603057;236;26605;-70
2022/07/10 03:24:34;;;;;;;1.40;0.70;;;13.50;79.40;;;;;;603112;236;26581;-70
2022/07/10 03:27:02;;;;;;;1.42;0.60;;;13.50;79.60;;;;;;604865;237;26586;-70
2022/07/10 03:29:29;;;;;;;2.22;0.82;;;13.50;80.10;;;;;;608295;235;26594;-71
2022/07/10 03:31:58;;;;;;;1.40;0.80;;;13.50;79.70;;;;;;604100;232;26582;-71
2022/07/10 03:34:25;;;;;;;2.33;0.85;;;13.50;79.70;;;;;;602176;235;26974;-71
2022/07/10 03:36:52;;;;;;;1.87;0.77;;;13.50;79.90;;;;;;608221;236;26627;-71
2022/07/10 03:39:19;;;;;;;1.33;0.73;;;13.50;80.20;;;;;;607719;236;27043;-71
2022/07/10 03:41:47;;;;;;;2.35;0.80;;;13.50;80.70;;;;;;605129;234;26573;-71
2022/07/10 03:44:14;;;;;;;1.00;0.75;;;13.50;81.10;;;;;;609910;235;26860;-70
2022/07/10 03:46:42;;;;;;;0.93;0.73;;;13.60;80.90;;;;;;606755;236;26664;-71
2022/07/10 03:49:10;;;;;;;1.92;0.70;;;13.60;81.10;;;;;;608715;236;26589;-71
2022/07/10 03:51:38;;;;;;;0.85;0.52;;;13.60;81.30;;;;;;606101;235;26648;-71
2022/07/10 03:54:06;;;;;;;0.90;0.75;;;13.60;81.50;;;;;;602503;238;26640;-70
2022/07/10 03:59:07;;;;;;;0.90;0.70;;;13.60;81.60;;;;;;603719;233;26593;-71
2022/07/10 04:01:35;;;;;;;1.10;0.80;;;13.70;82.20;;;;;;601718;236;26654;-71
2022/07/10 04:04:02;;;;;;;2.15;0.90;;;13.60;82.10;;;;;;606270;235;26600;-70
2022/07/10 04:06:29;;;;;;;1.58;0.70;;;13.70;82.50;;;;;;607999;235;26585;-71
2022/07/10 04:08:57;;;;;;;1.62;0.60;;;13.70;82.60;;;;;;605483;235;26945;-73
2022/07/10 04:11:24;;;;;;;4.47;0.88;;;13.70;82.90;;;;;;611379;234;26608;-72
2022/07/10 04:13:51;;;;;;;1.23;0.75;;;13.60;83.10;;;;;;602201;238;26640;-72
2022/07/10 04:16:18;;;;;;;1.83;0.95;;;13.60;83.30;;;;;;602863;236;26591;-72
2022/07/10 04:18:46;;;;;;;1.23;0.50;;;13.70;83.40;;;;;;604828;236;26954;-72
2022/07/10 04:21:13;;;;;;;0.73;0.60;;;13.70;83.30;;;;;;605334;238;26634;-72
2022/07/10 04:23:40;;;;;;;1.90;0.70;;;13.70;83.40;;;;;;604174;236;27036;-72
2022/07/10 04:26:07;;;;;;;0.60;0.60;;;13.70;83.40;;;;;;602029;232;26574;-72
2022/07/10 04:28:34;;;;;;;1.73;0.95;;;13.80;83.30;;;;;;604071;236;26828;-72
2022/07/10 04:31:01;;;;;;;0.93;0.62;;;13.80;83.40;;;;;;608644;234;26642;-72
2022/07/10 04:33:29;;;;;;;1.42;0.90;;;13.70;83.40;;;;;;606545;235;27230;-72
2022/07/10 04:35:56;;;;;;;1.75;0.82;;;13.90;83.60;;;;;;612635;235;26610;-72
2022/07/10 04:38:23;;;;;;;1.33;0.80;;;13.90;83.40;;;;;;605939;235;26588;-72
2022/07/10 04:40:50;;;;;;;1.67;0.80;;;13.80;83.80;;;;;;601750;237;26634;-65
2022/07/10 04:43:17;;;;;;;2.37;1.12;;;13.80;83.70;;;;;;602202;238;26855;-65
2022/07/10 04:45:45;;;;;;;0.68;0.68;;;13.80;83.80;;;;;;611909;235;26623;-65
2022/07/10 04:48:13;;;;;;;1.92;1.00;;;13.80;84.10;;;;;;608854;234;26644;-65
2022/07/10 04:50:41;;;;;;;0.90;0.80;;;13.80;84.00;;;;;;604602;237;26606;-65
2022/07/10 04:53:09;;;;;;;0.82;0.75;;;13.80;84.30;;;;;;604516;238;26593;-65
2022/07/10 04:55:36;;;;;;;2.35;1.00;;;13.80;84.30;;;;;;604533;237;26599;-65
2022/07/10 04:58:04;;;;;;;2.62;0.80;;;13.80;84.00;;;;;;605697;235;26641;-65
2022/07/10 05:00:31;;;;;;;1.42;0.70;;;13.90;84.40;;;;;;612386;234;26888;-65
2022/07/10 05:02:58;;;;;;;1.30;0.85;;;14.00;84.20;;;;;;609710;234;26646;-65
2022/07/10 05:05:25;;;;;;;2.00;0.90;;;13.90;84.00;;;;;;603254;238;26813;-65
2022/07/10 05:07:53;;;;;;;1.92;1.00;;;13.90;83.80;;;;;;603554;236;26585;-65
2022/07/10 05:10:20;;;;;;;2.20;0.90;;;13.90;84.40;;;;;;603564;236;27329;-65
2022/07/10 05:12:47;;;;;;;1.50;0.82;;;14.00;84.10;;;;;;601518;238;26620;-65
2022/07/10 05:15:14;;;;;;;1.98;0.65;;;14.00;83.90;;;;;;607583;233;26848;-65
2022/07/10 05:17:42;;;;;;;1.17;0.80;;;14.00;84.20;;;;;;611155;234;26584;-65
2022/07/10 05:20:11;;;;;;;0.60;0.60;;;14.20;84.30;;;;;;602573;235;26831;-65
2022/07/10 05:22:39;;;;;;;1.20;0.80;;;14.10;83.90;;;;;;607675;235;26592;-65
2022/07/10 05:25:07;;;;;;;2.45;0.90;;;14.10;84.20;;;;;;605273;232;26602;-65
2022/07/10 05:27:34;;;;;;;2.22;0.93;;;14.10;84.30;;;;;;603468;236;26841;-65
2022/07/10 05:30:01;;;;;;;2.65;0.95;;;14.20;84.10;;;;;;604707;235;26565;-66
2022/07/10 05:32:29;;;;;;;1.12;0.70;;;14.30;83.60;;;;;;604490;236;26862;-66
2022/07/10 05:34:58;;;;;;;2.50;0.95;;;14.30;83.20;;;;;;610033;236;26602;-66
2022/07/10 05:37:24;;;;;;;3.12;0.70;;;14.40;83.00;;;;;;610068;235;26640;-66
2022/07/10 05:39:52;;;;;;;2.00;0.85;;;14.40;82.20;;;;;;612427;234;26802;-66
2022/07/10 05:42:19;;;;;;;2.08;1.00;;;14.40;82.80;;;;;;606081;236;26581;-66
2022/07/10 05:44:46;;;;;;;0.93;0.82;;;14.50;82.90;;;;;;609746;231;26842;-66
2022/07/10 05:47:13;;;;;;;1.85;0.98;;;14.60;82.20;;;;;;606309;235;26578;-66
2022/07/10 05:49:40;;;;;;;0.82;0.82;;;14.70;82.20;;;;;;604790;237;26591;-66
2022/07/10 05:52:08;;;;;;;1.92;0.93;;;14.70;81.40;;;;;;604704;237;26620;-66
2022/07/10 05:54:36;;;;;;;2.17;0.90;;;14.70;81.70;;;;;;604515;236;26577;-66
2022/07/10 05:57:04;;;;;;;1.25;0.95;;;14.70;81.50;;;;;;601509;239;26654;-66
2022/07/10 05:59:33;;;;;;;1.62;1.00;;;14.90;80.80;;;;;;601737;237;26676;-66
2022/07/10 06:02:00;;;;;;;2.95;1.12;;;14.90;80.80;;;;;;602580;235;26658;-66
2022/07/10 06:04:28;;;;;;;0.70;0.70;;;14.90;80.10;;;;;;612270;231;26618;-66
2022/07/10 06:06:55;;;;;;;2.08;0.80;;;14.90;80.50;;;;;;609933;235;26865;-66
2022/07/10 06:09:22;;;;;;;1.27;0.82;;;14.80;80.20;;;;;;605246;236;26589;-66
2022/07/10 06:11:49;;;;;;;0.85;0.82;;;14.60;80.20;;;;;;608403;234;27316;-66
2022/07/10 06:14:18;;;;;;;2.35;0.88;;;14.60;80.70;;;;;;609773;236;26605;-66
2022/07/10 06:16:45;;;;;;;2.30;1.00;;;14.50;80.70;;;;;;605131;235;26830;-66
2022/07/10 06:19:12;;;;;;;1.73;0.98;;;14.60;80.60;;;;;;601515;238;26662;-66
2022/07/10 06:21:39;;;;;;;1.20;0.85;;;14.60;80.80;;;;;;601507;238;26876;-66
2022/07/10 06:24:07;;;;;;;1.87;0.90;;;14.60;80.80;;;;;;606310;235;26673;-66
2022/07/10 06:26:34;;;;;;;1.27;0.98;;;14.70;80.20;;;;;;606995;235;26916;-66
2022/07/10 06:29:01;;;;;;;3.92;1.12;;;14.80;79.70;;;;;;603633;232;26593;-66
2022/07/10 06:31:28;;;;;;;2.87;0.85;;;15.00;79.40;;;;;;605122;234;27382;-66
2022/07/10 06:33:56;;;;;;;1.20;0.82;;;15.20;78.20;;;;;;608158;234;26633;-66
2022/07/10 06:36:23;;;;;;;1.98;0.90;;;15.20;77.50;;;;;;606985;235;26860;-66
2022/07/10 06:38:50;;;;;;;3.28;1.08;;;15.30;77.00;;;;;;603656;236;26597;-66
2022/07/10 06:41:17;;;;;;;2.75;0.88;;;15.30;76.90;;;;;;602077;237;26848;-65
2022/07/10 06:43:44;;;;;;;3.25;0.90;;;15.40;76.60;;;;;;602251;237;26823;-65
2022/07/10 06:46:11;;;;;;;2.80;1.08;;;15.40;76.90;;;;;;601811;232;26794;-65
2022/07/10 06:48:40;;;;;;;3.10;1.27;;;15.30;76.40;;;;;;607008;235;26635;-66
2022/07/10 06:51:06;;;;;;;1.92;1.02;;;15.40;76.30;;;;;;604400;235;27296;-66
2022/07/10 06:53:33;;;;;;;3.33;1.00;;;15.50;75.20;;;;;;604039;236;26592;-66
2022/07/10 06:56:00;;;;;;;2.30;0.90;;;15.40;75.50;;;;;;604925;237;26849;-66
2022/07/10 06:58:28;;;;;;;2.00;0.95;;;15.40;73.60;;;;;;604721;232;26590;-66
2022/07/10 07:00:55;;;;;;;1.62;1.10;;;15.40;73.60;;;;;;609472;234;26885;-66
2022/07/10 07:03:23;;;;;;;0.70;0.70;;;15.40;72.70;;;;;;603711;235;26656;-66
2022/07/10 07:05:50;;;;;;;2.42;1.05;;;15.70;71.50;;;;;;608414;230;26882;-66
2022/07/10 07:08:17;;;;;;;2.80;1.10;;;16.00;71.30;;;;;;605011;236;26586;-66
2022/07/10 07:10:44;;;;;;;2.17;1.00;;;16.30;71.20;;;;;;604511;232;26803;-66
2022/07/10 07:13:11;;;;;;;1.42;0.88;;;16.40;70.80;;;;;;610028;235;26852;-66
2022/07/10 07:15:42;;;;;;;1.80;0.95;;;16.10;69.00;;;;;;606864;235;26627;-66
2022/07/10 07:18:11;;;;;;;3.42;0.80;;;16.30;69.00;;;;;;607116;236;26630;-65
2022/07/10 07:23:10;;;;;;;2.20;1.00;;;16.40;67.60;;;;;;603207;236;26618;-65
2022/07/10 07:25:40;;;;;;;2.55;0.98;;;16.60;66.90;;;;;;609414;236;26557;-65
2022/07/10 07:28:05;;;;;;;1.42;1.10;;;16.60;66.90;;;;;;603666;236;26589;-67
2022/07/10 07:30:32;;;;;;;2.58;0.90;;;16.60;66.10;;;;;;608618;235;26888;-65
2022/07/10 07:32:59;;;;;;;2.70;1.00;;;16.80;65.20;;;;;;607796;236;26655;-66
2022/07/10 07:35:26;;;;;;;2.58;1.23;;;16.60;64.10;;;;;;601977;236;26950;-66
2022/07/10 07:37:55;;;;;;;1.23;0.73;;;16.60;63.30;;;;;;604480;238;26610;-66
2022/07/10 07:40:23;;;;;;;2.33;1.12;;;16.80;62.10;;;;;;607806;235;26664;-64
2022/07/10 07:42:51;;;;;;;6.07;1.20;;;16.80;61.50;;;;;;605979;235;26581;-66
2022/07/10 07:45:19;;;;;;;1.95;1.00;;;17.00;60.60;;;;;;605541;234;26582;-65
2022/07/10 07:47:47;;;;;;;2.85;1.10;;;16.90;60.40;;;;;;603161;235;26596;-66
2022/07/10 07:50:15;;;;;;;1.85;1.00;;;16.80;59.80;;;;;;609493;236;26881;-65
2022/07/10 07:52:44;;;;;;;4.78;1.08;;;16.90;59.60;;;;;;611100;235;26586;-65
2022/07/10 07:55:11;;;;;;;1.45;0.90;;;16.90;59.20;;;;;;609297;234;26646;-65
2022/07/10 07:57:39;;;;;;;1.58;1.10;;;16.80;58.90;;;;;;602511;236;26591;-65
2022/07/10 08:00:08;;;;;;;3.35;1.20;;;16.70;59.00;;;;;;604191;233;26618;-65
2022/07/10 08:02:35;;;;;;;1.62;1.10;;;16.60;58.90;;;;;;604703;236;26564;-65
2022/07/10 08:05:05;;;;;;;2.22;0.98;;;16.70;59.60;;;;;;605322;236;26597;-65
2022/07/10 08:07:35;;;;;;;2.50;0.90;;;16.70;59.60;;;;;;606915;235;26563;-66
2022/07/10 08:10:02;;;;;;;1.73;1.10;;;16.60;59.40;;;;;;602522;236;26791;-66
2022/07/10 08:12:30;;;;;;;1.95;1.25;;;16.40;59.40;;;;;;605663;232;26579;-66
2022/07/10 08:14:58;;;;;;;2.40;1.10;;;16.40;59.40;;;;;;604225;235;26661;-66
2022/07/10 08:17:25;;;;;;;3.42;1.20;;;16.70;59.00;;;;;;602069;235;26949;-66
2022/07/10 08:19:52;;;;;;;2.28;1.23;;;16.90;58.60;;;;;;609182;235;26596;-66
2022/07/10 08:22:19;;;;;;;1.85;1.23;;;17.30;58.20;;;;;;607368;235;26840;-66
2022/07/10 08:24:46;;;;;;;1.25;0.88;;;17.80;57.30;;;;;;602587;237;26633;-66
2022/07/10 08:27:14;;;;;;;1.80;1.12;;;18.00;56.70;;;;;;604207;238;26904;-66
2022/07/10 08:29:41;;;;;;;1.83;0.80;;;18.20;56.20;;;;;;602196;235;26642;-66
2022/07/10 08:32:09;;;;;;;1.87;1.10;;;18.10;56.50;;;;;;604987;236;26861;-66
2022/07/10 08:34:35;;;;;;;3.22;1.35;;;17.70;55.40;;;;;;601998;236;26636;-66
2022/07/10 08:37:02;;;;;;;1.98;1.25;;;17.30;55.90;;;;;;601545;237;26880;-66
2022/07/10 08:39:30;;;;;;;4.22;1.52;;;17.30;56.70;;;;;;604972;235;26658;-66
2022/07/10 08:41:58;;;;;;;2.97;1.40;;;17.50;56.80;;;;;;609431;236;26651;-66
2022/07/10 08:44:26;;;;;;;1.83;1.10;;;17.60;57.00;;;;;;601853;238;26608;-66
2022/07/10 08:46:53;;;;;;;2.60;1.20;;;17.60;57.00;;;;;;602140;237;26655;-66
2022/07/10 08:49:20;;;;;;;3.72;1.17;;;17.50;57.50;;;;;;603795;238;26573;-66
2022/07/10 08:51:48;;;;;;;2.85;1.40;;;17.50;56.90;;;;;;603416;237;26693;-66
2022/07/10 08:54:15;;;;;;;3.53;1.02;;;17.70;57.20;;;;;;609209;234;26648;-66
2022/07/10 08:56:43;;;;;;;3.05;1.12;;;17.50;58.20;;;;;;607365;235;26636;-66
2022/07/10 08:59:12;;;;;;;1.85;1.35;;;17.30;58.30;;;;;;602256;237;26681;-66
2022/07/10 09:01:40;;;;;;;2.00;1.10;;;17.30;58.30;;;;;;607999;233;26569;-66
2022/07/10 09:04:07;;;;;;;3.80;1.05;;;17.20;58.60;;;;;;604560;235;26804;-66
2022/07/10 09:06:34;;;;;;;3.72;1.45;;;17.20;58.80;;;;;;608590;235;26832;-66
2022/07/10 09:09:02;;;;;;;3.87;1.40;;;17.30;58.40;;;;;;604820;236;26591;-66
2022/07/10 09:11:30;;;;;;;1.80;1.10;;;17.40;58.00;;;;;;602126;236;26845;-66
2022/07/10 09:13:57;;;;;;;2.72;1.27;;;17.70;57.70;;;;;;612219;235;26586;-66
2022/07/10 09:16:27;;;;;;;2.95;1.10;;;17.70;55.10;;;;;;612656;235;26580;-66
2022/07/10 09:18:54;;;;;;;2.42;1.10;;;17.70;55.10;;;;;;610418;235;26629;-66
2022/07/10 09:21:22;;;;;;;1.55;1.05;;;17.90;54.30;;;;;;607622;235;26640;-66
2022/07/10 09:23:50;;;;;;;1.15;1.00;;;18.00;54.00;;;;;;606446;235;26599;-66
2022/07/10 09:26:18;;;;;;;2.45;1.30;;;18.20;53.50;;;;;;606914;235;26653;-69
2022/07/10 09:28:45;;;;;;;5.78;1.02;;;18.20;53.50;;;;;;609096;235;26628;-66
2022/07/10 09:31:12;;;;;;;8.80;1.40;;;18.10;53.40;;;;;;604602;234;26629;-66
2022/07/10 09:33:39;;;;;;;2.65;1.20;;;18.20;53.30;;;;;;604236;235;26849;-66
2022/07/10 09:36:09;;;;;;;2.17;1.20;;;18.40;53.20;;;;;;603598;237;26806;-66
2022/07/10 09:38:57;;;;;;;3.15;1.27;;;18.60;52.80;;;;;;601327;239;26630;-66
2022/07/10 09:41:25;;;;;;;2.12;1.30;;;18.40;53.30;;;;;;601470;239;26652;-66
2022/07/10 09:43:56;;;;;;;2.40;1.30;;;18.60;53.10;;;;;;603323;235;26605;-65
2022/07/10 09:46:26;;;;;;;4.53;1.50;;;18.60;53.10;;;;;;605764;234;26658;-65
2022/07/10 09:49:09;;;;;;;3.25;1.15;;;18.70;53.20;;;;;;606044;235;26654;-65
2022/07/10 09:51:39;;;;;;;3.78;1.23;;;19.20;52.00;;;;;;606037;235;26746;-64
2022/07/10 09:54:06;;;;;;;2.72;1.30;;;19.20;52.00;;;;;;606284;235;26648;-65
2022/07/10 09:56:34;;;;;;;5.40;1.27;;;19.10;51.80;;;;;;605943;235;26631;-65
2022/07/10 09:59:02;;;;;;;7.95;1.25;;;18.70;51.80;;;;;;607588;235;26594;-65
2022/07/10 10:01:30;;;;;;;5.28;1.52;;;18.90;52.20;;;;;;603989;236;26695;-65
2022/07/10 10:03:58;;;;;;;4.35;1.58;;;18.90;52.20;;;;;;605788;234;26585;-65
2022/07/10 10:06:24;;;;;;;2.67;1.73;;;18.70;52.50;;;;;;603645;235;26670;-65
2022/07/10 10:09:15;;;;;;;8.45;2.17;;;18.90;52.30;;;;;;604950;234;27316;-65
2022/07/10 10:11:42;;;;;;;5.35;2.22;;;19.00;52.00;;;;;;603242;236;26691;-65
2022/07/10 10:14:10;;;;;;;5.32;2.70;;;19.60;51.40;;;;;;602683;236;26924;-65
2022/07/10 10:16:37;;;;;;;3.67;2.10;;;19.40;51.00;;;;;;610401;235;26565;-65
2022/07/10 10:21:38;;;;;;;3.10;1.75;;;19.40;50.90;;;;;;610148;235;26660;-65
2022/07/10 10:24:06;;;;;;;4.18;1.77;;;19.60;50.60;;;;;;610169;235;26633;-64
2022/07/10 10:26:33;;;;;;;4.95;2.05;;;19.50;50.50;;;;;;608804;236;26594;-64
2022/07/10 10:29:00;;;;;;;5.20;1.80;;;19.60;50.50;;;;;;601803;237;26833;-64
2022/07/10 10:31:27;;;;;;;4.12;1.70;;;19.70;50.50;;;;;;601733;237;26601;-65
2022/07/10 10:33:55;;;;;;;3.72;1.80;;;19.90;50.10;;;;;;601762;237;26806;-64
2022/07/10 10:36:47;;;;;;;2.53;1.55;;;19.90;50.40;;;;;;603623;235;26581;-64
2022/07/10 10:39:16;;;;;;;4.78;1.48;;;20.20;49.80;;;;;;603998;237;26544;-63
2022/07/10 10:41:49;;;;;;;4.35;1.42;;;20.20;50.00;;;;;;602653;237;26862;-63
2022/07/10 10:44:20;;;;;;;4.00;1.55;;;20.10;49.20;;;;;;602846;234;26585;-64
2022/07/10 10:47:02;;;;;;;3.53;1.45;;;20.20;48.90;;;;;;603947;235;26645;-63
2022/07/10 10:49:28;;;;;;;4.95;1.70;;;19.70;49.20;;;;;;602811;233;26592;-64
2022/07/10 10:52:02;;;;;;;2.87;1.70;;;19.80;48.20;;;;;;603860;235;26668;-63
2022/07/10 10:54:30;;;;;;;1.87;1.30;;;20.40;48.00;;;;;;607710;235;26577;-64
2022/07/10 10:57:09;;;;;;;4.03;1.50;;;20.40;48.00;;;;;;603261;236;26638;-70
2022/07/10 10:59:45;;;;;;;2.45;1.50;;;20.50;47.50;;;;;;611341;234;26853;-70
2022/07/10 11:02:29;;;;;;;12.82;2.03;;;19.90;47.90;;;;;;602891;238;26887;-71
2022/07/10 11:05:29;;;;;;;68.80;14.45;;;19.10;48.40;;;;;;600330;234;26655;-67
2022/07/10 11:07:58;;;;;;;129.38;25.10;;;18.80;49.40;;;;;;603011;236;26661;-67
2022/07/10 11:10:39;;;;;;;150.55;31.48;;;18.80;49.50;;;;;;601525;239;26659;-67
2022/07/10 11:13:07;;;;;;;140.80;29.15;;;18.80;49.50;;;;;;610689;232;26607;-67
2022/07/10 11:15:34;;;;;;;130.32;26.73;;;18.90;49.60;;;;;;603248;237;26607;-67
2022/07/10 11:18:05;;;;;;;102.80;21.42;;;19.00;49.60;;;;;;604534;235;27010;-67
2022/07/10 11:20:33;;;;;;;68.57;16.40;;;19.40;49.00;;;;;;604735;235;26641;-68
2022/07/10 11:23:25;;;;;;;74.57;15.15;;;19.40;49.00;;;;;;605498;235;26621;-68
2022/07/10 11:26:07;;;;;;;74.40;15.95;;;19.20;48.90;;;;;;602583;232;26877;-67
2022/07/10 11:28:54;;;;;;;51.72;14.25;;;19.30;49.20;;;;;;603650;238;26795;-68
2022/07/10 11:31:22;;;;;;;53.67;13.00;;;19.40;49.30;;;;;;603134;236;26583;-68
2022/07/10 11:33:51;;;;;;;56.15;13.55;;;19.60;49.70;;;;;;602198;236;26570;-68
2022/07/10 11:36:19;;;;;;;51.28;11.40;;;19.80;49.30;;;;;;605544;236;26600;-68
2022/07/10 11:38:46;;;;;;;27.62;6.28;;;19.80;49.30;;;;;;607442;236;26888;-67
2022/07/10 11:41:17;;;;;;;17.80;3.95;;;19.30;49.40;;;;;;607717;235;26636;-67
2022/07/10 11:43:46;;;;;;;16.58;3.40;;;19.30;50.00;;;;;;607496;235;26552;-67
2022/07/10 11:46:14;;;;;;;17.85;4.45;;;19.80;49.50;;;;;;604035;236;26791;-68
2022/07/10 11:48:42;;;;;;;12.93;3.70;;;19.90;48.40;;;;;;604258;235;26601;-68
2022/07/10 11:51:18;;;;;;;11.12;3.33;;;20.20;48.50;;;;;;604503;233;26675;-69
2022/07/10 11:53:52;;;;;;;11.35;3.28;;;20.10;48.50;;;;;;603831;235;26825;-70
2022/07/10 11:56:19;;;;;;;123.13;20.73;;;20.10;48.50;;;;;;603272;236;26634;-69
2022/07/10 11:58:55;;;;;;;117.85;22.75;;;19.90;48.80;;;;;;606684;235;26634;-69
2022/07/10 12:01:22;;;;;;;111.05;22.80;;;20.00;49.20;;;;;;604372;237;26622;-68
2022/07/10 12:03:56;;;;;;;107.78;21.60;;;19.70;49.10;;;;;;602756;236;26814;-68
2022/07/10 12:06:23;;;;;;;100.80;21.12;;;19.10;50.00;;;;;;602579;236;26637;-67
2022/07/10 12:08:51;;;;;;;107.35;18.42;;;19.40;50.00;;;;;;603258;236;26646;-67
2022/07/10 12:11:18;;;;;;;75.30;16.73;;;19.40;50.00;;;;;;604421;237;26608;-67
2022/07/10 12:13:46;;;;;;;75.70;15.00;;;19.90;49.00;;;;;;602656;237;26793;-67
2022/07/10 12:16:13;;;;;;;85.05;15.23;;;19.80;48.00;;;;;;603237;237;26593;-67
2022/07/10 12:18:41;;;;;;;50.25;11.80;;;20.30;48.50;;;;;;601513;237;26680;-67
2022/07/10 12:21:10;;;;;;;52.80;12.65;;;21.30;47.50;;;;;;601452;237;26628;-67
2022/07/10 12:23:39;;;;;;;42.05;9.85;;;21.30;47.50;;;;;;604994;235;26636;-67
2022/07/10 12:26:05;;;;;;;28.67;6.47;;;20.60;46.80;;;;;;606286;233;26630;-68
2022/07/10 12:28:32;;;;;;;18.67;6.12;;;20.60;46.80;;;;;;606666;234;26650;-70
2022/07/10 12:30:59;;;;;;;22.13;5.50;;;20.30;47.50;;;;;;606450;234;26890;-68
2022/07/10 12:33:27;;;;;;;21.55;5.80;;;20.20;47.80;;;;;;605054;234;26652;-68
2022/07/10 12:35:55;;;;;;;16.27;4.32;;;20.40;47.80;;;;;;605022;235;26816;-68
2022/07/10 12:38:21;;;;;;;10.68;3.53;;;20.40;47.80;;;;;;606451;235;26987;-68
2022/07/10 12:40:49;;;;;;;10.95;3.50;;;20.40;48.20;;;;;;608322;234;26663;-68
2022/07/10 12:43:24;;;;;;;10.27;3.12;;;20.60;48.20;;;;;;603743;237;26914;-68
2022/07/10 12:46:14;;;;;;;11.68;3.28;;;20.60;47.30;;;;;;603090;236;26851;-68
2022/07/10 12:48:41;;;;;;;8.85;3.15;;;20.40;47.50;;;;;;604266;235;26570;-68
2022/07/10 12:51:28;;;;;;;12.15;2.97;;;20.20;47.80;;;;;;605929;235;26839;-68
2022/07/10 12:53:54;;;;;;;6.82;2.17;;;20.00;47.80;;;;;;610315;230;26591;-68
2022/07/10 12:56:29;;;;;;;10.48;2.47;;;21.10;47.20;;;;;;609512;231;26863;-71
2022/07/10 12:58:56;;;;;;;6.20;1.95;;;21.10;47.30;;;;;;602885;236;26589;-71